Time;durP1;ratioP1;P1;durP2;ratioP2;P2;SDS_P1;SDS_P2;PMS_P1;PMS_P2;Temp;Humidity;BMP_temperature;BMP_pressure;BME280_temperature;BME280_humidity;BME280_pressure;Samples;Min_cycle;Max_cycle;Signal;HPM_P1;HPM_P2
2021/06/23 00:02:15;;;;;;;37.08;7.18;;;;;;;25.28;63.59;99880.69;5034734;28;20487;-62
2021/06/23 00:04:42;;;;;;;22.33;6.60;;;;;;;25.24;63.65;99883.03;5035466;28;20021;-62
2021/06/23 00:07:07;;;;;;;24.63;7.50;;;;;;;25.23;63.39;99885.13;5035516;28;20147;-62
2021/06/23 00:09:32;;;;;;;26.73;7.45;;;;;;;25.28;62.91;99889.31;5035651;28;20100;-62
2021/06/23 00:11:58;;;;;;;31.55;7.97;;;;;;;25.34;62.66;99886.47;5035466;28;20033;-62
2021/06/23 00:14:23;;;;;;;31.45;7.25;;;;;;;25.40;62.59;99885.16;5035579;28;20026;-62
2021/06/23 00:16:50;;;;;;;32.92;8.02;;;;;;;25.45;62.15;99887.28;5035264;28;20028;-62
2021/06/23 00:19:16;;;;;;;20.80;7.53;;;;;;;25.41;62.03;99892.50;5035348;28;20472;-62
2021/06/23 00:21:41;;;;;;;35.95;8.18;;;;;;;25.31;62.20;99888.28;5035852;28;20227;-62
2021/06/23 00:24:07;;;;;;;40.85;7.82;;;;;;;25.23;62.51;99898.72;5035010;28;20056;-62
2021/06/23 00:26:34;;;;;;;31.42;8.25;;;;;;;25.17;62.81;99892.91;5035478;28;20029;-62
2021/06/23 00:29:00;;;;;;;34.35;7.95;;;;;;;25.13;62.97;99886.63;5035317;28;20022;-61
2021/06/23 00:31:27;;;;;;;26.77;7.85;;;;;;;25.07;63.41;99890.78;5035115;28;20321;-61
2021/06/23 00:33:53;;;;;;;33.33;7.93;;;;;;;25.03;63.85;99881.63;5035571;28;20030;-62
2021/06/23 00:36:19;;;;;;;36.92;8.07;;;;;;;24.96;63.46;99883.66;5035284;28;20491;-61
2021/06/23 00:38:44;;;;;;;29.08;7.95;;;;;;;24.94;63.72;99883.41;5035280;28;20057;-61
2021/06/23 00:41:16;;;;;;;31.88;8.20;;;;;;;24.90;63.93;99882.81;5034970;28;20038;-61
2021/06/23 00:43:41;;;;;;;;;;;;;;;24.84;63.99;99884.88;5035845;28;20205;-61
2021/06/23 00:46:07;;;;;;;28.55;7.47;;;;;;;24.82;64.43;99878.09;5034890;28;20356;-61
2021/06/23 00:48:32;;;;;;;31.55;7.55;;;;;;;24.79;64.15;99879.91;5035145;28;20018;-61
2021/06/23 00:51:00;;;;;;;38.95;9.52;;;;;;;24.78;64.12;99884.06;5035042;28;20022;-61
2021/06/23 00:53:26;;;;;;;30.27;7.25;;;;;;;24.79;63.96;99879.13;5035141;28;20021;-61
2021/06/23 00:55:54;;;;;;;33.25;8.45;;;;;;;24.79;63.83;99879.91;5035034;28;20328;-61
2021/06/23 00:58:20;;;;;;;25.05;7.13;;;;;;;24.81;63.86;99873.63;5034877;28;20033;-61
2021/06/23 01:00:46;;;;;;;22.95;6.57;;;;;;;24.80;63.97;99883.56;5035011;28;20040;-61
2021/06/23 01:03:11;;;;;;;32.22;8.23;;;;;;;24.78;64.06;99884.06;5034857;28;20164;-61
2021/06/23 01:05:38;;;;;;;31.65;7.47;;;;;;;24.75;64.05;99885.09;5034121;28;20440;-61
2021/06/23 01:08:05;;;;;;;34.85;7.78;;;;;;;24.74;64.17;99880.66;5034864;28;20077;-61
2021/06/23 01:10:34;;;;;;;38.28;8.20;;;;;;;24.73;64.14;99884.84;5034799;28;20433;-61
2021/06/23 01:13:23;;;;;;;35.17;8.90;;;;;;;24.74;64.06;99880.66;5037037;28;20034;-62
2021/06/23 01:15:49;;;;;;;29.60;7.32;;;;;;;24.73;64.00;99884.84;5038293;28;20101;-61
2021/06/23 01:18:15;;;;;;;40.05;7.47;;;;;;;24.72;64.01;99876.72;5038177;28;20100;-61
2021/06/23 01:20:43;;;;;;;37.83;6.57;;;;;;;24.70;64.07;99879.34;5038347;28;20032;-61
2021/06/23 01:23:10;;;;;;;32.95;8.30;;;;;;;24.69;64.12;99878.53;5038425;28;20025;-61
2021/06/23 01:25:36;;;;;;;33.20;7.28;;;;;;;24.63;64.36;99875.63;5038376;28;20355;-61
2021/06/23 01:28:02;;;;;;;32.38;7.13;;;;;;;24.59;64.56;99874.28;5038631;28;20039;-61
2021/06/23 01:30:27;;;;;;;29.42;7.22;;;;;;;24.56;64.43;99866.69;5038008;28;20052;-61
2021/06/23 01:32:53;;;;;;;34.10;7.00;;;;;;;24.51;64.50;99868.22;5038291;28;20413;-62
2021/06/23 01:35:18;;;;;;;32.40;7.68;;;;;;;24.47;64.45;99867.69;5038538;28;20401;-61
2021/06/23 01:37:44;;;;;;;34.60;8.25;;;;;;;24.42;64.96;99879.94;5037816;28;20017;-61
2021/06/23 01:40:10;;;;;;;34.00;7.63;;;;;;;24.35;65.17;99886.91;5037159;28;20362;-61
2021/06/23 01:42:35;;;;;;;37.22;7.90;;;;;;;24.27;65.33;99885.00;5038229;28;20027;-61
2021/06/23 01:45:01;;;;;;;33.65;7.35;;;;;;;24.17;65.38;99881.53;5038049;28;20021;-61
2021/06/23 01:47:27;;;;;;;34.15;7.85;;;;;;;24.10;65.94;99884.84;5038061;28;20029;-61
2021/06/23 01:49:52;;;;;;;28.27;7.45;;;;;;;24.07;65.91;99896.56;5038019;28;20045;-61
2021/06/23 01:52:18;;;;;;;29.98;7.18;;;;;;;24.03;66.08;99891.03;5038064;28;20035;-62
2021/06/23 01:54:43;;;;;;;32.30;7.90;;;;;;;23.98;66.39;99886.84;5037876;28;20022;-62
2021/06/23 01:57:10;;;;;;;31.65;7.20;;;;;;;23.94;66.17;99889.16;5038137;28;20313;-61
2021/06/23 01:59:37;;;;;;;28.80;7.38;;;;;;;23.93;66.18;99887.56;5037517;28;20060;-62
2021/06/23 02:02:28;;;;;;;29.05;6.55;;;;;;;23.93;66.24;99883.91;5037915;28;20098;-61
2021/06/23 02:05:07;;;;;;;32.58;8.45;;;;;;;23.90;66.42;99882.06;5037737;28;20359;-61
2021/06/23 02:08:10;;;;;;;23.92;6.55;;;;;;;23.88;66.61;99887.53;5037776;28;20054;-62
2021/06/23 02:10:50;;;;;;;29.05;7.13;;;;;;;23.87;66.58;99895.34;5037550;28;20029;-61
2021/06/23 02:13:27;;;;;;;27.25;7.20;;;;;;;23.83;66.78;99893.97;5037470;28;20413;-62
2021/06/23 02:15:56;;;;;;;30.88;8.02;;;;;;;23.78;66.61;99900.44;5037502;28;20036;-61
2021/06/23 02:18:24;;;;;;;37.00;7.35;;;;;;;23.74;66.80;99900.69;5037471;28;20056;-61
2021/06/23 02:20:52;;;;;;;32.60;7.60;;;;;;;23.71;66.94;99898.81;5037482;28;20017;-61
2021/06/23 02:23:17;;;;;;;33.28;8.57;;;;;;;23.68;66.69;99908.44;5031185;28;20029;-61
2021/06/23 02:25:43;;;;;;;34.35;8.32;;;;;;;23.65;66.67;99901.63;5034278;28;20040;-61
2021/06/23 02:28:10;;;;;;;38.70;7.78;;;;;;;23.63;66.78;99909.97;5036949;28;20184;-62
2021/06/23 02:30:37;;;;;;;32.95;7.93;;;;;;;23.61;66.95;99917.50;5037380;28;20070;-61
2021/06/23 02:33:05;;;;;;;36.78;8.40;;;;;;;23.57;66.94;99916.94;5037278;28;20108;-61
2021/06/23 02:35:30;;;;;;;34.67;8.73;;;;;;;23.54;67.21;99924.41;5037313;28;20029;-61
2021/06/23 02:37:58;;;;;;;31.00;7.53;;;;;;;23.53;66.99;99922.84;5037161;28;20432;-61
2021/06/23 02:40:24;;;;;;;34.28;7.90;;;;;;;23.49;66.87;99930.88;5035704;28;20038;-61
2021/06/23 02:42:49;;;;;;;38.80;7.10;;;;;;;23.49;66.98;99925.16;5037035;28;20018;-61
2021/06/23 02:45:15;;;;;;;28.35;7.85;;;;;;;23.47;67.30;99927.72;5036911;28;20435;-61
2021/06/23 02:47:41;;;;;;;44.72;7.57;;;;;;;23.47;67.09;99924.88;5036916;28;20071;-61
2021/06/23 02:50:07;;;;;;;40.95;9.13;;;;;;;23.50;66.81;99929.59;5037291;28;20025;-61
2021/06/23 02:52:36;;;;;;;50.15;8.38;;;;;;;23.53;66.86;99934.31;5036874;28;20022;-61
2021/06/23 02:55:05;;;;;;;41.45;7.95;;;;;;;23.58;66.58;99942.25;5027997;28;20018;-62
2021/06/23 02:57:36;;;;;;;34.38;7.95;;;;;;;23.62;65.87;99936.28;5031850;28;20368;-61
2021/06/23 03:00:05;;;;;;;32.85;8.13;;;;;;;23.62;65.76;99942.03;5036624;28;20064;-61
2021/06/23 03:02:31;;;;;;;35.22;7.15;;;;;;;23.59;65.63;99943.84;5036798;28;20060;-62
2021/06/23 03:04:56;;;;;;;31.67;7.03;;;;;;;23.58;65.69;99948.00;5036723;28;20053;-61
2021/06/23 03:07:22;;;;;;;32.92;7.10;;;;;;;23.58;65.50;99947.22;5035844;28;20581;-61
2021/06/23 03:09:47;;;;;;;40.45;6.90;;;;;;;23.53;65.50;99940.06;5033046;28;20025;-61
2021/06/23 03:12:17;;;;;;;28.90;7.38;;;;;;;23.51;65.68;99941.84;5026587;28;20026;-61
2021/06/23 03:14:43;;;;;;;45.47;8.55;;;;;;;23.48;65.76;99945.72;5033452;28;20099;-62
2021/06/23 03:17:09;;;;;;;35.50;7.22;;;;;;;23.44;66.08;99954.56;5030223;28;20025;-62
2021/06/23 03:19:35;;;;;;;28.45;7.53;;;;;;;23.37;66.35;99947.19;5030760;28;20294;-62
2021/06/23 03:22:07;;;;;;;30.30;8.32;;;;;;;23.32;66.70;99945.03;5033900;28;20083;-62
2021/06/23 03:24:36;;;;;;;26.23;7.13;;;;;;;23.27;66.82;99953.53;5036324;28;20056;-61
2021/06/23 03:27:02;;;;;;;26.70;7.63;;;;;;;23.22;67.01;99954.25;5031789;28;20018;-61
2021/06/23 03:29:30;;;;;;;35.60;7.22;;;;;;;23.19;67.13;99952.41;5028375;28;20028;-61
2021/06/23 03:31:57;;;;;;;35.28;8.07;;;;;;;23.15;67.17;99958.34;5036250;28;20104;-61
2021/06/23 03:34:24;;;;;;;26.85;7.85;;;;;;;23.11;67.48;99958.56;5036375;28;20030;-61
2021/06/23 03:36:49;;;;;;;31.20;8.50;;;;;;;23.11;67.48;99966.38;5024200;28;20050;-61
2021/06/23 03:39:14;;;;;;;27.13;6.57;;;;;;;23.08;67.77;99967.38;5035777;28;20068;-61
2021/06/23 03:41:40;;;;;;;27.65;9.05;;;;;;;23.07;68.13;99965.81;5034221;28;20379;-61
2021/06/23 03:44:05;;;;;;;29.17;8.02;;;;;;;23.05;68.09;99966.28;5017370;28;20057;-61
2021/06/23 03:46:30;;;;;;;35.05;7.15;;;;;;;23.06;67.52;99967.88;5024974;28;20409;-61
2021/06/23 03:48:57;;;;;;;35.45;8.32;;;;;;;23.08;67.93;99973.09;5016894;28;20029;-61
2021/06/23 03:51:23;;;;;;;45.88;8.55;;;;;;;23.12;68.05;99967.94;5029713;28;20121;-61
2021/06/23 03:53:48;;;;;;;32.53;7.65;;;;;;;23.16;67.97;99976.34;5022087;28;20521;-61
2021/06/23 03:56:14;;;;;;;24.38;7.70;;;;;;;23.21;68.29;99987.09;5029396;28;20033;-63
2021/06/23 03:58:41;;;;;;;33.05;8.43;;;;;;;23.26;67.90;99977.78;5028660;28;20018;-61
2021/06/23 04:01:07;;;;;;;33.25;7.22;;;;;;;23.34;67.98;99984.69;5027603;28;20045;-61
2021/06/23 04:03:33;;;;;;;43.97;7.55;;;;;;;23.42;67.28;99991.56;5016615;28;20380;-61
2021/06/23 04:05:58;;;;;;;25.50;6.18;;;;;;;23.56;66.44;100001.44;5019996;28;20453;-60
2021/06/23 04:08:23;;;;;;;26.67;6.72;;;;;;;23.70;65.94;100001.34;5028373;28;20058;-61
2021/06/23 04:10:49;;;;;;;30.60;6.63;;;;;;;23.85;65.10;100000.47;5020326;28;20025;-61
2021/06/23 04:13:14;;;;;;;27.98;6.65;;;;;;;23.98;64.86;100003.72;5031251;28;20026;-62
2021/06/23 04:15:39;;;;;;;21.30;6.40;;;;;;;24.07;64.33;100011.38;5019009;28;20026;-61
2021/06/23 04:18:05;;;;;;;30.45;5.97;;;;;;;24.16;64.38;100016.97;5028457;28;20021;-62
2021/06/23 04:20:30;;;;;;;24.23;6.00;;;;;;;24.27;64.01;100031.44;5019117;28;20025;-62
2021/06/23 04:22:55;;;;;;;26.63;5.75;;;;;;;24.39;64.46;100038.16;5029658;28;20053;-63
2021/06/23 04:25:21;;;;;;;27.67;6.50;;;;;;;24.47;64.36;100042.13;5033815;28;20052;-62
2021/06/23 04:27:46;;;;;;;27.20;7.07;;;;;;;24.56;64.26;100047.69;5032255;28;20061;-62
2021/06/23 04:30:13;;;;;;;23.48;6.68;;;;;;;24.65;63.68;100039.69;5033914;28;20032;-61
2021/06/23 04:32:39;;;;;;;22.50;6.85;;;;;;;24.74;64.20;100044.47;5034100;28;20025;-61
2021/06/23 04:35:07;;;;;;;31.58;6.28;;;;;;;24.81;64.30;100040.34;5031519;28;20385;-61
2021/06/23 04:37:35;;;;;;;28.42;6.63;;;;;;;24.89;64.08;100042.22;5031227;28;20032;-61
2021/06/23 04:40:00;;;;;;;20.38;6.90;;;;;;;24.98;63.73;100040.47;5033288;28;20041;-61
2021/06/23 04:42:26;;;;;;;23.70;6.32;;;;;;;25.04;63.08;100045.00;5030445;28;20021;-61
2021/06/23 04:44:51;;;;;;;27.98;6.95;;;;;;;25.13;62.21;100041.13;5023463;28;20124;-61
2021/06/23 04:47:18;;;;;;;20.02;6.45;;;;;;;25.21;61.57;100036.50;5024007;28;20132;-61
2021/06/23 04:49:43;;;;;;;25.83;7.40;;;;;;;25.28;61.91;100038.88;5025823;28;20046;-61
2021/06/23 04:52:09;;;;;;;28.48;6.25;;;;;;;25.36;61.84;100042.84;5028359;28;20125;-61
2021/06/23 04:54:34;;;;;;;27.58;6.30;;;;;;;25.45;62.18;100038.97;5031778;28;20025;-61
2021/06/23 04:56:59;;;;;;;18.50;6.15;;;;;;;25.53;61.22;100040.88;5034215;28;20083;-61
2021/06/23 04:59:25;;;;;;;23.55;5.70;;;;;;;25.63;61.01;100040.66;5034317;28;20029;-61
2021/06/23 05:01:50;;;;;;;28.88;7.10;;;;;;;25.68;60.51;100037.81;5029691;28;20030;-61
2021/06/23 05:04:15;;;;;;;27.10;6.63;;;;;;;25.74;60.29;100032.88;5025183;28;20286;-61
2021/06/23 05:06:41;;;;;;;23.33;6.45;;;;;;;25.82;60.61;100030.31;5038002;28;20283;-61
2021/06/23 05:09:06;;;;;;;30.08;7.03;;;;;;;25.91;59.97;100030.06;5036212;28;20441;-61
2021/06/23 05:11:33;;;;;;;31.58;6.75;;;;;;;25.97;59.53;100030.88;5037515;28;20413;-61
2021/06/23 05:14:00;;;;;;;32.70;7.00;;;;;;;26.03;59.61;100030.91;5037334;28;20025;-61
2021/06/23 05:16:26;;;;;;;27.60;6.00;;;;;;;26.11;59.32;100034.84;5037266;28;20127;-61
2021/06/23 05:18:55;;;;;;;27.13;6.55;;;;;;;26.20;59.68;100037.47;5037648;28;20021;-62
2021/06/23 05:21:21;;;;;;;19.65;5.72;;;;;;;26.30;58.62;100032.28;5036745;28;20053;-62
2021/06/23 05:23:47;;;;;;;32.95;6.65;;;;;;;26.41;57.83;100046.72;5037825;28;20064;-62
2021/06/23 05:26:12;;;;;;;29.10;6.43;;;;;;;26.50;57.06;100052.22;5036589;28;20072;-62
2021/06/23 05:28:38;;;;;;;23.00;4.47;;;;;;;26.57;57.27;100048.84;5037736;28;20022;-62
2021/06/23 05:31:03;;;;;;;21.38;5.32;;;;;;;26.67;56.73;100058.81;5036711;28;20075;-62
2021/06/23 05:33:29;;;;;;;24.58;5.78;;;;;;;26.75;55.56;100059.84;5038205;28;20029;-61
2021/06/23 05:35:54;;;;;;;23.35;5.38;;;;;;;26.87;55.59;100054.91;5038240;28;20096;-62
2021/06/23 05:38:19;;;;;;;21.55;4.93;;;;;;;26.97;54.28;100066.94;5038297;28;20053;-62
2021/06/23 05:40:46;;;;;;;19.15;4.32;;;;;;;27.07;54.66;100062.50;5038293;28;20049;-62
2021/06/23 05:43:11;;;;;;;23.52;5.20;;;;;;;27.17;53.34;100066.72;5038436;28;20029;-61
2021/06/23 05:45:37;;;;;;;32.08;5.20;;;;;;;27.25;53.23;100070.63;5038057;28;20435;-61
2021/06/23 05:48:03;;;;;;;27.00;5.38;;;;;;;27.33;52.72;100074.53;5037273;28;20376;-62
2021/06/23 05:50:28;;;;;;;25.27;5.03;;;;;;;27.42;51.86;100069.81;5037480;28;20075;-62
2021/06/23 05:52:53;;;;;;;30.02;5.68;;;;;;;27.50;51.27;100068.75;5038192;28;20033;-62
2021/06/23 05:55:22;;;;;;;32.13;5.72;;;;;;;27.56;51.46;100074.50;5038218;28;20025;-63
2021/06/23 05:57:54;;;;;;;30.98;5.85;;;;;;;27.64;51.61;100072.66;5024160;28;20021;-62
2021/06/23 06:00:21;;;;;;;21.65;4.68;;;;;;;27.72;50.46;100070.81;5036857;28;20025;-62
2021/06/23 06:02:47;;;;;;;23.35;4.32;;;;;;;27.83;50.38;100070.75;5038121;28;20324;-62
2021/06/23 06:05:13;;;;;;;24.40;5.25;;;;;;;27.94;49.72;100059.19;5026441;28;20022;-62
2021/06/23 06:07:38;;;;;;;24.38;5.05;;;;;;;28.01;48.00;100061.50;5035160;28;20049;-62
2021/06/23 06:10:04;;;;;;;18.50;4.45;;;;;;;28.09;47.40;100073.28;5037842;28;20075;-62
2021/06/23 06:12:29;;;;;;;28.02;4.53;;;;;;;28.18;47.91;100066.41;5037401;28;20029;-63
2021/06/23 06:14:55;;;;;;;25.20;5.65;;;;;;;28.26;47.61;100062.47;5037820;28;20021;-62
2021/06/23 06:17:20;;;;;;;34.28;5.88;;;;;;;28.38;47.29;100066.06;5037661;28;20021;-63
2021/06/23 06:19:46;;;;;;;20.27;4.78;;;;;;;28.48;46.24;100073.06;5037245;28;20417;-63
2021/06/23 06:22:11;;;;;;;21.17;4.18;;;;;;;28.53;45.56;100072.28;5037530;28;20025;-62
2021/06/23 06:24:36;;;;;;;32.43;4.93;;;;;;;28.59;45.63;100075.91;5037322;28;20320;-62
2021/06/23 06:27:02;;;;;;;21.38;4.60;;;;;;;28.68;45.94;100076.91;5037564;28;20690;-62
2021/06/23 06:29:28;;;;;;;17.75;4.68;;;;;;;28.77;46.34;100076.59;5037119;28;20068;-62
2021/06/23 06:31:53;;;;;;;15.75;4.30;;;;;;;28.88;44.94;100083.09;5036212;28;20022;-63
2021/06/23 06:34:18;;;;;;;18.42;4.00;;;;;;;28.98;45.17;100089.31;5037158;28;20021;-63
2021/06/23 06:36:44;;;;;;;25.58;5.60;;;;;;;29.08;45.58;100093.44;5037104;28;20028;-62
2021/06/23 06:39:09;;;;;;;35.70;6.40;;;;;;;29.19;45.30;100089.66;5036117;28;20021;-62
2021/06/23 06:41:34;;;;;;;28.15;5.75;;;;;;;29.26;44.85;100094.06;5037223;28;20025;-62
2021/06/23 06:44:00;;;;;;;27.70;5.07;;;;;;;29.29;44.63;100098.78;5036985;28;20044;-62
2021/06/23 06:46:26;;;;;;;22.27;5.18;;;;;;;29.33;45.40;100096.38;5037320;28;20036;-62
2021/06/23 06:48:51;;;;;;;27.43;5.10;;;;;;;29.39;44.50;100095.00;5036708;28;20029;-62
2021/06/23 06:51:16;;;;;;;18.55;4.63;;;;;;;29.48;43.88;100103.34;5037050;28;20332;-62
2021/06/23 06:53:42;;;;;;;27.77;5.82;;;;;;;29.54;43.50;100109.06;5036720;28;20372;-62
2021/06/23 06:56:07;;;;;;;17.50;4.53;;;;;;;29.62;43.39;100115.84;5036927;28;20041;-63
2021/06/23 06:58:33;;;;;;;20.50;4.38;;;;;;;29.69;42.61;100109.47;5024874;28;20053;-62
2021/06/23 07:00:58;;;;;;;14.37;4.20;;;;;;;29.78;42.47;100117.78;5034887;28;20356;-63
2021/06/23 07:03:23;;;;;;;21.13;4.32;;;;;;;29.81;42.68;100116.69;5036588;28;20671;-62
2021/06/23 07:05:49;;;;;;;22.70;4.68;;;;;;;29.82;42.41;100118.25;5036584;28;20025;-64
2021/06/23 07:08:14;;;;;;;14.97;4.17;;;;;;;29.88;42.85;100117.41;5036431;28;20103;-62
2021/06/23 07:10:39;;;;;;;19.90;4.65;;;;;;;29.91;42.85;100114.22;5036484;28;20251;-62
2021/06/23 07:13:05;;;;;;;14.23;3.85;;;;;;;29.97;43.01;100131.53;5036625;28;20151;-62
2021/06/23 07:15:30;;;;;;;24.00;4.93;;;;;;;30.01;43.07;100123.31;5036744;28;20108;-62
2021/06/23 07:17:57;;;;;;;30.13;4.78;;;;;;;30.03;43.22;100132.28;5036066;28;20025;-62
2021/06/23 07:20:23;;;;;;;24.10;5.15;;;;;;;30.16;42.68;100129.50;5036266;28;20025;-62
2021/06/23 07:22:48;;;;;;;18.20;3.88;;;;;;;30.21;40.94;100125.72;5036308;28;20405;-63
2021/06/23 07:25:14;;;;;;;16.33;4.15;;;;;;;30.27;41.71;100128.56;5036288;28;20436;-62
2021/06/23 07:27:39;;;;;;;17.17;3.50;;;;;;;30.35;41.44;100133.16;5036271;28;20030;-63
2021/06/23 07:30:05;;;;;;;17.40;3.75;;;;;;;30.42;40.97;100134.69;5036175;28;20401;-63
2021/06/23 07:32:35;;;;;;;25.92;4.18;;;;;;;30.51;41.30;100130.59;5035809;28;20105;-63
2021/06/23 07:37:44;;;;;;;14.48;3.72;;;;;;;30.73;40.55;100139.03;5036046;28;20056;-63
2021/06/23 07:40:11;;;;;;;17.50;3.15;;;;;;;30.82;37.20;100135.72;5035999;28;20413;-63
2021/06/23 07:42:36;;;;;;;14.57;3.10;;;;;;;30.91;36.82;100134.50;5036105;28;20048;-63
2021/06/23 07:45:04;;;;;;;13.32;3.20;;;;;;;30.93;37.37;100128.94;5036084;28;20405;-62
2021/06/23 07:47:33;;;;;;;13.70;3.63;;;;;;;30.98;37.78;100131.78;5035593;28;20104;-63
2021/06/23 07:49:58;;;;;;;12.13;2.92;;;;;;;31.04;37.38;100117.94;5036016;28;20018;-63
2021/06/23 07:52:49;;;;;;;14.20;3.42;;;;;;;31.15;37.32;100122.00;5035951;28;20044;-63
2021/06/23 07:55:41;;;;;;;11.50;3.50;;;;;;;31.19;36.27;100129.06;5035785;28;20030;-62
2021/06/23 08:09:10;;;;;;;12.73;3.17;;;;;;;31.34;37.00;100128.56;5095556;28;20351;-62
2021/06/23 08:11:38;;;;;;;16.88;3.95;;;;;;;31.45;35.63;100137.06;5083228;28;20304;-62
2021/06/23 08:14:04;;;;;;;19.40;3.30;;;;;;;31.53;35.36;100131.41;5095918;28;20419;-62
2021/06/23 08:16:32;;;;;;;15.70;3.50;;;;;;;31.71;35.46;100141.34;5095501;28;20032;-62
2021/06/23 08:18:57;;;;;;;18.63;3.47;;;;;;;31.83;35.28;100136.94;5095585;28;20107;-63
2021/06/23 08:21:23;;;;;;;19.25;3.38;;;;;;;31.85;35.33;100142.97;5095376;28;20525;-63
2021/06/23 08:23:48;;;;;;;9.35;3.35;;;;;;;31.83;35.29;100142.75;5095405;28;20027;-62
2021/06/23 08:26:13;;;;;;;21.85;3.72;;;;;;;31.87;35.66;100140.28;5095478;28;20319;-63
2021/06/23 08:28:39;;;;;;;20.77;3.72;;;;;;;32.00;35.09;100148.22;5095493;28;20032;-62
2021/06/23 08:31:04;;;;;;;11.85;3.30;;;;;;;32.04;34.32;100143.63;5095364;28;20043;-66
2021/06/23 08:33:30;;;;;;;16.00;3.15;;;;;;;32.12;34.65;100140.84;5095168;28;20031;-62
2021/06/23 08:35:55;;;;;;;17.98;3.80;;;;;;;32.14;34.45;100144.75;5095676;28;20411;-62
2021/06/23 08:38:23;;;;;;;21.00;3.80;;;;;;;32.20;34.53;100148.31;5095500;28;20016;-62
2021/06/23 08:40:50;;;;;;;8.30;2.83;;;;;;;32.24;34.25;100145.84;5095602;28;20059;-62
2021/06/23 08:43:17;;;;;;;11.15;3.00;;;;;;;32.35;34.22;100147.78;5095241;28;20035;-62
2021/06/23 08:45:43;;;;;;;12.60;3.35;;;;;;;32.44;34.62;100149.44;5095445;28;20020;-63
2021/06/23 08:48:10;;;;;;;19.13;4.15;;;;;;;32.58;33.97;100142.25;5095813;28;20139;-62
2021/06/23 08:50:36;;;;;;;16.70;3.47;;;;;;;32.66;32.92;100146.03;5095079;28;20024;-62
2021/06/23 08:53:02;;;;;;;18.95;3.20;;;;;;;32.74;32.59;100155.63;5077512;28;20024;-63
2021/06/23 08:55:27;;;;;;;20.75;3.10;;;;;;;32.80;32.45;100150.50;5095225;28;20457;-63
2021/06/23 08:57:52;;;;;;;15.27;3.17;;;;;;;32.82;32.95;100147.78;5095085;28;20016;-63
2021/06/23 09:00:20;;;;;;;14.63;3.40;;;;;;;32.88;32.94;100153.50;5095260;28;20028;-63
2021/06/23 09:02:46;;;;;;;20.23;4.05;;;;;;;32.93;32.13;100143.06;5095149;28;20099;-62
2021/06/23 09:05:14;;;;;;;14.40;3.30;;;;;;;32.99;32.93;100140.81;5095231;28;20020;-62
2021/06/23 09:07:39;;;;;;;19.67;3.33;;;;;;;33.01;33.10;100149.75;5094774;28;20480;-63
2021/06/23 09:10:08;;;;;;;8.43;2.80;;;;;;;33.06;33.09;100148.81;5095047;28;20020;-63
2021/06/23 09:12:34;;;;;;;12.77;3.20;;;;;;;33.11;33.07;100154.50;5094765;28;20311;-62
2021/06/23 09:15:00;;;;;;;12.65;2.55;;;;;;;33.15;33.27;100154.19;5095339;28;20020;-62
2021/06/23 09:17:27;;;;;;;12.45;3.20;;;;;;;33.12;33.53;100167.72;5095195;28;20111;-62
2021/06/23 09:19:58;;;;;;;17.67;3.60;;;;;;;33.16;34.16;100168.16;5095131;28;20031;-62
2021/06/23 09:22:45;;;;;;;12.82;2.97;;;;;;;33.24;32.61;100168.25;5095188;28;20020;-62
2021/06/23 09:25:10;;;;;;;12.60;3.10;;;;;;;33.35;33.24;100162.16;5095121;28;20382;-63
2021/06/23 09:27:45;;;;;;;21.30;3.53;;;;;;;33.42;32.59;100164.38;5094777;28;20055;-62
2021/06/23 09:30:33;;;;;;;16.25;3.08;;;;;;;33.52;31.80;100160.94;5095201;28;20419;-62
2021/06/23 09:33:17;;;;;;;14.05;3.20;;;;;;;33.61;32.19;100166.25;5094943;28;20024;-63
2021/06/23 09:35:47;;;;;;;11.77;3.22;;;;;;;33.57;31.79;100160.00;5097736;28;20411;-63
2021/06/23 09:38:36;;;;;;;20.85;3.30;;;;;;;33.61;31.45;100166.25;5098741;28;20085;-62
2021/06/23 09:41:03;;;;;;;12.82;3.22;;;;;;;33.61;32.32;100172.09;5098459;28;20024;-63
2021/06/23 09:43:40;;;;;;;11.68;3.00;;;;;;;33.64;32.04;100168.81;5098102;28;20042;-62
2021/06/23 09:46:19;;;;;;;20.98;3.35;;;;;;;33.73;31.13;100173.38;5077220;28;20055;-62
2021/06/23 09:48:45;;;;;;;19.20;3.92;;;;;;;33.79;31.84;100165.25;5093875;28;20039;-63
2021/06/23 09:51:20;;;;;;;17.73;3.42;;;;;;;33.90;31.01;100170.00;5098358;28;20034;-63
2021/06/23 09:53:46;;;;;;;11.40;2.63;;;;;;;33.92;30.93;100165.16;5097959;28;20047;-63
2021/06/23 09:56:31;;;;;;;11.88;2.78;;;;;;;34.01;30.45;100161.75;5098335;28;20024;-62
2021/06/23 09:58:58;;;;;;;19.52;3.38;;;;;;;34.03;30.37;100179.44;5097793;28;20533;-62
2021/06/23 10:01:25;;;;;;;15.05;3.20;;;;;;;34.10;30.24;100178.72;5098144;28;20077;-62
2021/06/23 10:03:56;;;;;;;10.07;2.63;;;;;;;34.12;30.83;100180.28;5098127;28;20024;-62
2021/06/23 10:06:23;;;;;;;;;;;;;;;34.14;30.70;100171.72;5083758;28;20028;-63
2021/06/23 10:08:49;;;;;;;15.25;3.17;;;;;;;34.07;30.56;100176.16;5097960;28;20016;-63
2021/06/23 10:11:29;;;;;;;9.07;3.22;;;;;;;34.11;30.30;100176.56;5097660;28;20416;-63
2021/06/23 10:13:55;;;;;;;13.88;3.15;;;;;;;34.17;30.57;100176.41;5098215;28;20181;-62
2021/06/23 10:16:23;;;;;;;17.83;4.43;;;;;;;34.18;31.55;100175.06;5098249;28;20142;-62
2021/06/23 10:18:51;;;;;;;19.67;3.63;;;;;;;34.17;30.45;100183.03;5097959;28;20024;-63
2021/06/23 10:21:16;;;;;;;13.15;3.28;;;;;;;34.19;31.11;100176.63;5097718;28;20404;-62
2021/06/23 10:23:42;;;;;;;10.63;2.95;;;;;;;34.20;31.33;100181.09;5097905;28;20032;-62
2021/06/23 10:26:08;;;;;;;16.35;3.40;;;;;;;34.25;30.57;100180.94;5097224;28;20063;-63
2021/06/23 10:28:35;;;;;;;9.80;2.75;;;;;;;34.36;30.15;100182.78;5097650;28;20089;-63
2021/06/23 10:31:01;;;;;;;12.48;3.00;;;;;;;34.37;30.19;100181.41;5097644;28;20032;-63
2021/06/23 10:33:30;;;;;;;19.27;3.78;;;;;;;34.31;29.44;100181.56;5097148;28;20024;-63
2021/06/23 10:35:55;;;;;;;13.63;3.10;;;;;;;34.32;30.29;100176.50;5097664;28;20288;-63
2021/06/23 10:38:21;;;;;;;19.08;3.78;;;;;;;34.33;29.56;100183.91;5097416;28;20026;-63
2021/06/23 10:40:46;;;;;;;12.88;3.50;;;;;;;34.37;29.99;100184.34;5082952;28;20312;-63
2021/06/23 10:43:14;;;;;;;15.13;4.03;;;;;;;34.44;30.59;100177.75;5097275;28;20053;-63
2021/06/23 10:45:46;;;;;;;14.00;3.13;;;;;;;34.42;30.53;100186.31;5078717;28;20027;-62
2021/06/23 10:48:12;;;;;;;12.70;2.90;;;;;;;34.35;30.19;100184.13;5097261;28;20020;-63
2021/06/23 10:50:38;;;;;;;10.25;2.63;;;;;;;34.32;31.27;100182.34;5096911;28;20028;-63
2021/06/23 10:53:28;;;;;;;14.68;2.95;;;;;;;34.27;30.94;100174.53;5097249;28;20427;-63
2021/06/23 10:55:53;;;;;;;18.05;3.53;;;;;;;34.24;29.99;100169.84;5096715;28;20618;-63
2021/06/23 10:58:27;;;;;;;9.60;3.20;;;;;;;34.36;30.92;100174.03;5097054;28;20028;-63
2021/06/23 11:01:06;;;;;;;16.13;2.80;;;;;;;34.45;30.07;100164.72;5078716;28;20280;-63
2021/06/23 11:03:31;;;;;;;14.05;3.35;;;;;;;34.53;29.57;100167.69;5096927;28;20016;-62
2021/06/23 11:05:56;;;;;;;18.30;4.10;;;;;;;34.57;29.92;100168.88;5096783;28;20016;-63
2021/06/23 11:08:23;;;;;;;13.43;3.30;;;;;;;34.63;29.27;100175.31;5096330;28;20044;-63
2021/06/23 11:10:49;;;;;;;10.70;3.42;;;;;;;34.72;28.84;100168.16;5096735;28;20081;-63
2021/06/23 11:13:35;;;;;;;16.85;2.78;;;;;;;34.66;28.36;100174.16;5096934;28;20366;-63
2021/06/23 11:16:02;;;;;;;16.13;3.10;;;;;;;34.65;29.59;100174.75;5078583;28;20549;-63
2021/06/23 11:18:31;;;;;;;9.13;3.10;;;;;;;34.66;29.55;100171.25;5096723;28;20455;-63
2021/06/23 11:21:12;;;;;;;16.75;3.63;;;;;;;34.75;30.39;100169.13;5096371;28;20111;-63
2021/06/23 11:23:58;;;;;;;16.95;4.30;;;;;;;34.80;30.04;100163.13;5096380;28;20032;-63
2021/06/23 11:26:24;;;;;;;22.83;4.40;;;;;;;34.85;30.13;100170.19;5096190;28;20360;-62
2021/06/23 11:28:55;;;;;;;20.60;4.20;;;;;;;34.91;29.67;100171.56;5078566;28;20031;-63
2021/06/23 11:31:22;;;;;;;14.18;3.78;;;;;;;34.98;29.48;100175.84;5096580;28;20020;-63
2021/06/23 11:33:50;;;;;;;10.73;3.38;;;;;;;35.07;28.04;100181.16;5096518;28;20154;-63
2021/06/23 11:36:19;;;;;;;13.38;3.28;;;;;;;35.05;27.80;100169.25;5096753;28;20366;-63
2021/06/23 11:38:45;;;;;;;15.82;4.35;;;;;;;35.04;27.85;100173.53;5095649;28;20412;-63